createdAt,value
2022-09-13T00:00:55.849Z,1.77
2022-09-13T00:02:57.899Z,1.63
2022-09-13T00:04:59.672Z,1.93
2022-09-13T00:07:01.350Z,1.40
2022-09-13T00:09:03.211Z,1.80
2022-09-13T00:11:04.943Z,1.60
2022-09-13T00:13:08.265Z,1.50
2022-09-13T00:15:10.711Z,1.73
2022-09-13T00:17:12.443Z,2.10
2022-09-13T00:19:14.141Z,1.90
2022-09-13T00:21:17.884Z,1.57
2022-09-13T00:23:20.230Z,1.73
2022-09-13T00:25:21.966Z,1.70
2022-09-13T00:27:23.664Z,1.70
2022-09-13T00:29:25.502Z,1.77
2022-09-13T00:31:28.596Z,1.80
2022-09-13T00:33:31.410Z,2.13
2022-09-13T00:35:33.254Z,1.87
2022-09-13T00:37:35.077Z,1.97
2022-09-13T00:39:37.050Z,2.00
2022-09-13T00:41:39.277Z,1.73
2022-09-13T00:43:51.540Z,1.80
2022-09-13T00:45:53.518Z,1.70
2022-09-13T00:48:06.544Z,1.90
2022-09-13T00:50:47.471Z,2.10
2022-09-13T00:53:14.069Z,2.00
2022-09-13T00:55:40.246Z,1.70
2022-09-13T00:57:43.968Z,1.70
2022-09-13T01:00:01.038Z,2.00
2022-09-13T01:02:05.986Z,2.00
2022-09-13T01:04:12.475Z,2.20
2022-09-13T01:06:22.514Z,2.00
2022-09-13T01:08:24.847Z,1.90
2022-09-13T01:10:27.709Z,1.90
2022-09-13T01:12:45.450Z,1.80
2022-09-13T01:14:48.253Z,1.93
2022-09-13T01:16:50.194Z,1.90
2022-09-13T01:18:52.136Z,1.80
2022-09-13T01:21:26.925Z,1.80
2022-09-13T01:23:47.264Z,2.13
2022-09-13T01:26:11.600Z,1.90
2022-09-13T01:28:55.937Z,2.30
2022-09-13T01:31:26.391Z,1.63
2022-09-13T01:33:41.111Z,1.80
2022-09-13T01:35:50.516Z,1.80
2022-09-13T01:37:55.567Z,2.20
2022-09-13T01:40:17.999Z,1.90
2022-09-13T01:42:26.049Z,2.30
2022-09-13T01:44:50.750Z,2.00
2022-09-13T01:47:22.408Z,2.07
2022-09-13T01:49:57.989Z,2.10
2022-09-13T01:52:07.893Z,2.13
2022-09-13T01:54:36.292Z,2.10
2022-09-13T01:57:04.118Z,2.20
2022-09-13T01:59:18.837Z,3.20
2022-09-13T02:01:36.354Z,2.10
2022-09-13T02:03:50.846Z,1.97
2022-09-13T02:05:57.645Z,2.10
2022-09-13T02:08:40.630Z,1.97
2022-09-13T02:10:52.047Z,1.93
2022-09-13T02:12:56.037Z,2.10
2022-09-13T02:15:02.414Z,1.97
2022-09-13T02:17:10.478Z,2.10
2022-09-13T02:19:18.934Z,2.20
2022-09-13T02:21:27.233Z,2.17
2022-09-13T02:23:44.786Z,2.30
2022-09-13T02:25:49.622Z,2.30
2022-09-13T02:27:58.904Z,2.50
2022-09-13T02:30:10.173Z,2.40
2022-09-13T02:32:30.476Z,2.30
2022-09-13T02:34:41.213Z,2.60
2022-09-13T02:36:46.368Z,2.40
2022-09-13T02:38:55.925Z,2.30
2022-09-13T02:41:27.709Z,2.30
2022-09-13T02:43:42.071Z,2.43
2022-09-13T02:46:04.124Z,2.50
2022-09-13T02:48:38.241Z,2.23
2022-09-13T02:50:48.752Z,2.40
2022-09-13T02:52:54.362Z,2.50
2022-09-13T02:55:15.185Z,2.50
2022-09-13T02:57:46.782Z,2.30
2022-09-13T02:59:49.743Z,2.40
2022-09-13T03:02:14.211Z,1.83
2022-09-13T03:04:16.209Z,2.23
2022-09-13T03:06:25.846Z,2.37
2022-09-13T03:08:28.566Z,2.13
2022-09-13T03:10:49.026Z,2.17
2022-09-13T03:13:11.594Z,2.17
2022-09-13T03:15:16.330Z,2.20
2022-09-13T03:17:55.621Z,1.90
2022-09-13T03:20:11.822Z,2.10
2022-09-13T03:22:47.414Z,2.30
2022-09-13T03:25:07.409Z,2.17
2022-09-13T03:27:24.776Z,2.30
2022-09-13T03:29:38.216Z,2.07
2022-09-13T03:32:02.897Z,2.20
2022-09-13T03:34:11.792Z,2.23
2022-09-13T03:36:27.312Z,2.37
2022-09-13T03:38:42.642Z,2.23
2022-09-13T03:40:58.321Z,2.03
2022-09-13T03:43:05.448Z,2.23
2022-09-13T03:45:09.418Z,2.30
2022-09-13T03:47:12.467Z,2.30
2022-09-13T03:49:17.248Z,2.17
2022-09-13T03:51:19.395Z,2.40
2022-09-13T03:53:25.049Z,2.13
2022-09-13T03:55:28.562Z,2.60
2022-09-13T03:57:30.532Z,2.70
2022-09-13T03:59:32.292Z,2.27
2022-09-13T04:01:34.288Z,2.30
2022-09-13T04:03:37.892Z,2.30
2022-09-13T04:05:40.002Z,2.23
2022-09-13T04:07:41.849Z,2.80
2022-09-13T04:09:43.583Z,2.10
2022-09-13T04:11:45.301Z,2.33
2022-09-13T04:13:47.168Z,2.20
2022-09-13T04:15:50.186Z,2.30
2022-09-13T04:17:52.376Z,2.33
2022-09-13T04:19:54.227Z,2.40
2022-09-13T04:21:56.227Z,2.40
2022-09-13T04:23:57.956Z,2.50
2022-09-13T04:26:06.254Z,2.40
2022-09-13T04:28:08.009Z,2.30
2022-09-13T04:30:11.545Z,2.47
2022-09-13T04:32:13.276Z,2.77
2022-09-13T04:34:15.235Z,2.80
2022-09-13T04:36:16.971Z,2.47
2022-09-13T04:38:18.738Z,2.30
2022-09-13T04:40:21.673Z,2.20
2022-09-13T04:42:23.396Z,2.30
2022-09-13T04:44:25.411Z,2.40
2022-09-13T04:46:27.765Z,2.30
2022-09-13T04:48:31.919Z,2.33
2022-09-13T04:50:33.603Z,2.63
2022-09-13T04:52:35.545Z,2.10
2022-09-13T04:54:37.845Z,2.20
2022-09-13T04:56:41.051Z,2.27
2022-09-13T04:58:42.778Z,2.07
2022-09-13T05:00:44.588Z,2.27
2022-09-13T05:02:46.313Z,2.67
2022-09-13T05:04:48.092Z,2.83
2022-09-13T05:06:49.902Z,2.50
2022-09-13T05:08:55.287Z,2.43
2022-09-13T05:10:57.237Z,2.60
2022-09-13T05:12:59.037Z,2.87
2022-09-13T05:15:01.116Z,2.60
2022-09-13T05:17:02.953Z,2.63
2022-09-13T05:19:04.980Z,2.50
2022-09-13T05:21:06.676Z,2.30
2022-09-13T05:23:08.340Z,2.93
2022-09-13T05:25:10.184Z,2.70
2022-09-13T05:27:12.339Z,2.53
2022-09-13T05:29:14.126Z,2.40
2022-09-13T05:31:28.496Z,2.30
2022-09-13T05:33:32.865Z,2.40
2022-09-13T05:35:34.580Z,2.80
2022-09-13T05:37:36.434Z,2.43
2022-09-13T05:40:00.372Z,2.80
2022-09-13T05:41:59.990Z,2.60
2022-09-13T05:44:10.322Z,2.70
2022-09-13T05:46:17.350Z,2.90
2022-09-13T05:48:19.108Z,2.40
2022-09-13T05:50:52.795Z,2.90
2022-09-13T05:52:43.117Z,2.80
2022-09-13T05:54:44.897Z,2.73
2022-09-13T05:56:46.634Z,2.70
2022-09-13T05:58:50.091Z,2.53
2022-09-13T06:00:56.365Z,2.47
2022-09-13T06:02:58.387Z,2.60
2022-09-13T06:05:00.165Z,2.70
2022-09-13T06:07:01.878Z,2.63
2022-09-13T06:09:06.448Z,2.67
2022-09-13T06:11:12.612Z,2.60
2022-09-13T06:13:14.381Z,2.53
2022-09-13T06:15:16.117Z,2.50
2022-09-13T06:17:18.212Z,2.70
2022-09-13T06:19:21.283Z,2.20
2022-09-13T06:21:27.116Z,2.40
2022-09-13T06:23:31.563Z,2.40
2022-09-13T06:25:33.306Z,2.67
2022-09-13T06:27:35.721Z,2.50
2022-09-13T06:29:37.760Z,2.50
2022-09-13T06:31:43.718Z,2.80
2022-09-13T06:33:45.911Z,2.60
2022-09-13T06:35:47.647Z,2.60
2022-09-13T06:37:49.540Z,2.63
2022-09-13T06:39:51.319Z,2.67
2022-09-13T06:41:53.078Z,2.73
2022-09-13T06:44:02.088Z,2.80
2022-09-13T06:46:06.497Z,2.60
2022-09-13T06:48:08.289Z,4.67
2022-09-13T06:50:10.167Z,3.60
2022-09-13T06:52:12.319Z,3.30
2022-09-13T06:54:14.155Z,2.93
2022-09-13T06:56:17.303Z,2.80
2022-09-13T06:58:19.062Z,2.77
2022-09-13T07:00:20.873Z,2.90
2022-09-13T07:02:22.651Z,2.63
2022-09-13T07:04:24.504Z,2.60
2022-09-13T07:06:29.514Z,3.00
2022-09-13T07:08:32.063Z,2.70
2022-09-13T07:10:33.842Z,3.60
2022-09-13T07:12:35.547Z,2.70
2022-09-13T07:14:40.084Z,2.40
2022-09-13T07:16:42.094Z,2.47
2022-09-13T07:18:43.917Z,2.60
2022-09-13T07:20:45.702Z,2.63
2022-09-13T07:22:47.423Z,2.43
2022-09-13T07:24:49.275Z,2.60
2022-09-13T07:26:53.367Z,2.30
2022-09-13T07:28:57.781Z,2.43
2022-09-13T07:31:35.775Z,2.20
2022-09-13T07:33:39.184Z,2.50
2022-09-13T07:35:40.974Z,2.57
2022-09-13T07:37:42.977Z,2.47
2022-09-13T07:39:44.953Z,2.63
2022-09-13T07:41:46.893Z,2.50
2022-09-13T07:43:49.159Z,2.20
2022-09-13T07:46:12.319Z,2.30
2022-09-13T07:48:14.148Z,2.27
2022-09-13T07:50:15.951Z,2.33
2022-09-13T07:52:17.614Z,2.27
2022-09-13T07:54:20.624Z,2.20
2022-09-13T07:56:28.413Z,2.50
2022-09-13T07:58:30.344Z,2.10
2022-09-13T08:00:32.079Z,3.03
2022-09-13T08:02:34.193Z,2.10
2022-09-13T08:04:36.628Z,2.00
2022-09-13T08:06:39.869Z,2.10
2022-09-13T08:08:41.677Z,2.10
2022-09-13T08:10:47.522Z,2.27
2022-09-13T08:12:51.022Z,2.10
2022-09-13T08:14:52.739Z,2.10
2022-09-13T08:16:57.792Z,2.13
2022-09-13T08:19:02.684Z,2.27
2022-09-13T08:21:04.480Z,2.00
2022-09-13T08:23:07.754Z,2.30
2022-09-13T08:25:09.526Z,1.87
2022-09-13T08:27:13.459Z,2.30
2022-09-13T08:29:16.180Z,2.03
2022-09-13T08:31:19.931Z,2.00
2022-09-13T08:33:21.854Z,1.90
2022-09-13T08:35:23.627Z,2.10
2022-09-13T08:37:25.554Z,2.00
2022-09-13T08:39:29.246Z,2.20
2022-09-13T08:41:42.150Z,2.07
2022-09-13T08:43:57.476Z,2.00
2022-09-13T08:46:20.343Z,2.20
2022-09-13T08:48:31.948Z,1.90
2022-09-13T08:50:34.771Z,2.23
2022-09-13T08:52:46.795Z,1.90
2022-09-13T08:54:49.893Z,2.10
2022-09-13T08:57:24.543Z,1.80
2022-09-13T09:00:00.211Z,1.90
2022-09-13T09:02:18.234Z,2.00
2022-09-13T09:04:45.949Z,2.27
2022-09-13T09:06:47.821Z,2.40
2022-09-13T09:08:58.371Z,2.73
2022-09-13T09:11:07.844Z,2.50
2022-09-13T09:13:30.856Z,2.50
2022-09-13T09:15:40.338Z,2.50
2022-09-13T09:18:13.388Z,2.43
2022-09-13T09:20:26.184Z,2.10
2022-09-13T09:22:34.673Z,2.30
2022-09-13T09:24:38.824Z,2.30
2022-09-13T09:26:40.527Z,2.20
2022-09-13T09:28:43.073Z,2.10
2022-09-13T09:30:59.979Z,2.33
2022-09-13T09:33:29.534Z,2.50
2022-09-13T09:35:56.761Z,2.43
2022-09-13T09:38:17.169Z,2.57
2022-09-13T09:40:19.212Z,2.10
2022-09-13T09:42:27.435Z,2.30
2022-09-13T09:44:33.925Z,2.47
2022-09-13T09:46:39.682Z,2.63
2022-09-13T09:48:54.354Z,2.40
2022-09-13T09:51:01.190Z,2.70
2022-09-13T09:53:16.919Z,2.70
2022-09-13T09:55:32.306Z,3.00
2022-09-13T09:58:08.156Z,3.00
2022-09-13T10:00:14.405Z,2.73
2022-09-13T10:02:21.459Z,2.40
2022-09-13T10:04:24.340Z,2.47
2022-09-13T10:06:28.383Z,2.60
2022-09-13T10:08:33.588Z,2.50
2022-09-13T10:10:57.297Z,2.73
2022-09-13T10:12:59.709Z,2.50
2022-09-13T10:15:20.192Z,2.50
2022-09-13T10:17:25.129Z,2.60
2022-09-13T10:19:28.143Z,2.50
2022-09-13T10:21:29.944Z,2.53
2022-09-13T10:23:34.350Z,2.83
2022-09-13T10:25:37.131Z,2.47
2022-09-13T10:27:45.208Z,2.80
2022-09-13T10:29:50.883Z,2.93
2022-09-13T10:31:53.750Z,2.87
2022-09-13T10:34:14.249Z,2.60
2022-09-13T10:36:48.084Z,2.73
2022-09-13T10:39:02.276Z,2.60
2022-09-13T10:41:09.076Z,3.10
2022-09-13T10:43:19.391Z,2.80
2022-09-13T10:45:24.774Z,2.90
2022-09-13T10:47:44.163Z,3.00
2022-09-13T10:49:53.040Z,2.67
2022-09-13T10:51:54.799Z,2.70
2022-09-13T10:54:20.236Z,2.73
2022-09-13T10:56:26.481Z,2.60
2022-09-13T10:58:28.632Z,2.57
2022-09-13T11:00:59.944Z,2.70
2022-09-13T11:03:28.486Z,2.30
2022-09-13T11:05:38.004Z,2.50
2022-09-13T11:08:00.840Z,2.13
2022-09-13T11:10:18.741Z,2.00
2022-09-13T11:12:52.827Z,2.00
2022-09-13T11:15:13.531Z,2.10
2022-09-13T11:17:27.067Z,2.03
2022-09-13T11:19:40.684Z,1.70
2022-09-13T11:22:19.389Z,1.90
2022-09-13T11:24:40.372Z,1.60
2022-09-13T11:27:12.865Z,1.60
2022-09-13T11:29:29.577Z,1.50
2022-09-13T11:31:37.061Z,1.40
2022-09-13T11:33:48.543Z,1.50
2022-09-13T11:36:18.335Z,1.57
2022-09-13T11:38:38.308Z,1.30
2022-09-13T11:41:08.399Z,1.53
2022-09-13T11:43:25.118Z,1.40
2022-09-13T11:45:34.823Z,1.27
2022-09-13T11:47:47.494Z,1.50
2022-09-13T11:50:20.004Z,1.30
2022-09-13T11:53:00.077Z,1.20
2022-09-13T11:55:26.760Z,1.23
2022-09-13T11:57:38.292Z,1.20
2022-09-13T12:00:02.017Z,1.10
2022-09-13T12:02:20.017Z,1.10
2022-09-13T12:04:33.643Z,1.20
2022-09-13T12:06:50.915Z,1.30
2022-09-13T12:08:59.710Z,1.20
2022-09-13T12:11:15.873Z,1.20
2022-09-13T12:13:35.249Z,1.20
2022-09-13T12:15:40.300Z,1.10
2022-09-13T12:17:46.486Z,1.50
2022-09-13T12:19:51.846Z,1.40
2022-09-13T12:21:57.160Z,1.27
2022-09-13T12:24:01.593Z,1.33
2022-09-13T12:26:15.445Z,1.10
2022-09-13T12:28:23.182Z,1.23
2022-09-13T12:30:34.895Z,1.40
2022-09-13T12:32:38.699Z,1.33
2022-09-13T12:35:01.548Z,1.17
2022-09-13T12:37:05.917Z,1.37
2022-09-13T12:39:21.779Z,1.20
2022-09-13T12:41:34.240Z,1.20
2022-09-13T12:43:39.042Z,1.20
2022-09-13T12:46:06.732Z,1.43
2022-09-13T12:48:33.090Z,1.27
2022-09-13T12:50:46.263Z,1.37
2022-09-13T12:53:07.044Z,1.27
2022-09-13T12:55:47.649Z,1.47
2022-09-13T12:58:19.808Z,1.43
2022-09-13T13:00:34.218Z,1.30
2022-09-13T13:02:40.379Z,1.23
2022-09-13T13:04:42.215Z,1.40
2022-09-13T13:06:49.857Z,1.30
2022-09-13T13:08:55.361Z,1.30
2022-09-13T13:11:06.163Z,1.53
2022-09-13T13:13:24.963Z,1.90
2022-09-13T13:15:27.193Z,1.80
2022-09-13T13:17:42.577Z,1.80
2022-09-13T13:19:45.118Z,2.00
2022-09-13T13:21:46.887Z,1.98
2022-09-13T13:23:49.098Z,1.90
2022-09-13T13:26:07.642Z,2.00
2022-09-13T13:28:43.862Z,2.13
2022-09-13T13:30:54.052Z,1.80
2022-09-13T13:33:06.546Z,2.00
2022-09-13T13:35:30.325Z,1.90
2022-09-13T13:37:34.681Z,2.07
2022-09-13T13:39:42.361Z,1.80
2022-09-13T13:41:51.108Z,1.77
2022-09-13T13:43:52.904Z,1.97
2022-09-13T13:45:58.476Z,1.80
2022-09-13T13:48:11.970Z,1.97
2022-09-13T13:50:18.055Z,1.77
2022-09-13T13:52:22.570Z,1.90
2022-09-13T13:54:36.464Z,1.80
2022-09-13T13:56:50.265Z,1.90
2022-09-13T13:59:02.764Z,1.80
2022-09-13T14:01:04.633Z,2.00
2022-09-13T14:03:29.652Z,1.80
2022-09-13T14:05:54.488Z,1.70
2022-09-13T14:08:22.431Z,1.47
2022-09-13T14:11:11.012Z,1.40
2022-09-13T14:13:31.207Z,1.50
2022-09-13T14:15:51.129Z,1.60
2022-09-13T14:18:41.729Z,1.40
2022-09-13T14:21:18.756Z,1.60
2022-09-13T14:23:20.506Z,1.50
2022-09-13T14:25:24.986Z,1.57
2022-09-13T14:27:30.586Z,1.30
2022-09-13T14:29:32.447Z,1.40
2022-09-13T14:31:34.406Z,1.50
2022-09-13T14:33:37.472Z,1.77
2022-09-13T14:35:40.992Z,1.73
2022-09-13T14:37:42.717Z,1.40
2022-09-13T14:40:09.699Z,1.50
2022-09-13T14:42:14.845Z,1.60
2022-09-13T14:44:28.118Z,1.63
2022-09-13T14:46:40.445Z,1.93
2022-09-13T14:48:51.602Z,1.77
2022-09-13T14:51:03.277Z,2.00
2022-09-13T14:53:08.781Z,2.20
2022-09-13T14:55:16.909Z,2.20
2022-09-13T14:57:29.186Z,2.17
2022-09-13T14:59:42.245Z,2.70
2022-09-13T15:01:44.256Z,2.40
2022-09-13T15:03:48.015Z,3.00
2022-09-13T15:05:57.239Z,2.83
2022-09-13T15:07:59.658Z,3.07
2022-09-13T15:10:13.341Z,2.73
2022-09-13T15:12:27.222Z,3.03
2022-09-13T15:14:34.777Z,2.90
2022-09-13T15:16:47.065Z,3.27
2022-09-13T15:18:49.072Z,3.00
2022-09-13T15:20:55.341Z,3.23
2022-09-13T15:22:57.789Z,3.10
2022-09-13T15:25:05.257Z,3.30
2022-09-13T15:27:17.633Z,3.50
2022-09-13T15:29:19.649Z,3.03
2022-09-13T15:31:25.541Z,3.20
2022-09-13T15:33:32.236Z,3.00
2022-09-13T15:35:44.910Z,3.10
2022-09-13T15:37:46.660Z,2.90
2022-09-13T15:40:09.772Z,2.77
2022-09-13T15:42:11.702Z,2.53
2022-09-13T15:44:13.439Z,2.37
2022-09-13T15:46:16.229Z,2.50
2022-09-13T15:48:29.656Z,2.40
2022-09-13T15:50:33.265Z,2.40
2022-09-13T15:52:35.058Z,2.70
2022-09-13T15:54:40.922Z,2.50
2022-09-13T15:56:45.760Z,2.77
2022-09-13T15:58:48.483Z,2.90
2022-09-13T16:00:50.315Z,2.60
2022-09-13T16:02:52.373Z,2.53
2022-09-13T16:04:55.505Z,2.63
2022-09-13T16:06:57.231Z,2.50
2022-09-13T16:09:00.310Z,2.67
2022-09-13T16:11:02.222Z,2.40
2022-09-13T16:13:04.489Z,2.70
2022-09-13T16:15:06.716Z,2.20
2022-09-13T16:17:15.701Z,2.40
2022-09-13T16:19:20.867Z,2.70
2022-09-13T16:21:22.595Z,2.60
2022-09-13T16:23:24.448Z,2.47
2022-09-13T16:25:27.378Z,2.70
2022-09-13T16:27:33.709Z,2.30
2022-09-13T16:29:35.837Z,2.20
2022-09-13T16:31:37.759Z,2.50
2022-09-13T16:33:39.501Z,2.10
2022-09-13T16:35:41.544Z,2.07
2022-09-13T16:37:44.369Z,2.30
2022-09-13T16:39:46.749Z,2.60
2022-09-13T16:41:48.770Z,2.43
2022-09-13T16:43:50.546Z,2.17
2022-09-13T16:45:52.241Z,2.30
2022-09-13T16:47:54.157Z,2.03
2022-09-13T16:49:55.880Z,2.20
2022-09-13T16:52:01.263Z,2.10
2022-09-13T16:54:03.788Z,2.40
2022-09-13T16:56:11.121Z,2.30
2022-09-13T16:58:12.910Z,2.40
2022-09-13T17:00:15.619Z,2.80
2022-09-13T17:02:17.463Z,2.20
2022-09-13T17:04:19.439Z,2.20
2022-09-13T17:06:22.149Z,1.93
2022-09-13T17:08:23.873Z,2.30
2022-09-13T17:10:26.050Z,2.50
2022-09-13T17:12:27.859Z,2.30
2022-09-13T17:14:29.824Z,2.50
2022-09-13T17:16:34.823Z,3.10
2022-09-13T17:18:36.706Z,2.60
2022-09-13T17:20:44.339Z,2.50
2022-09-13T17:22:46.070Z,2.70
2022-09-13T17:24:47.845Z,2.23
2022-09-13T17:26:49.894Z,2.13
2022-09-13T17:28:52.686Z,2.37
2022-09-13T17:30:56.783Z,2.70
2022-09-13T17:33:00.240Z,2.70
2022-09-13T17:35:01.995Z,2.77
2022-09-13T17:37:04.037Z,2.63
2022-09-13T17:39:06.694Z,2.90
2022-09-13T17:41:15.084Z,1.87
2022-09-13T17:43:16.806Z,2.20
2022-09-13T17:45:19.252Z,2.10
2022-09-13T17:47:21.135Z,2.30
2022-09-13T17:49:22.899Z,2.37
2022-09-13T17:51:29.095Z,2.37
2022-09-13T17:53:31.317Z,2.23
2022-09-13T17:55:34.097Z,2.40
2022-09-13T17:57:36.433Z,2.30
2022-09-13T17:59:38.181Z,2.67
2022-09-13T18:01:43.378Z,2.00
2022-09-13T18:03:45.728Z,1.90
2022-09-13T18:05:47.734Z,2.00
2022-09-13T18:07:50.795Z,1.90
2022-09-13T18:09:52.518Z,2.10
2022-09-13T18:11:54.913Z,2.23
2022-09-13T18:13:56.998Z,1.93
2022-09-13T18:16:05.453Z,1.77
2022-09-13T18:18:07.441Z,2.00
2022-09-13T18:20:09.608Z,1.70
2022-09-13T18:22:11.625Z,1.90
2022-09-13T18:24:13.678Z,1.90
2022-09-13T18:26:17.809Z,2.10
2022-09-13T18:28:19.640Z,2.57
2022-09-13T18:30:21.353Z,2.67
2022-09-13T18:32:23.093Z,2.60
2022-09-13T18:34:27.740Z,2.40
2022-09-13T18:36:30.981Z,2.23
2022-09-13T18:38:35.546Z,2.07
2022-09-13T18:40:38.731Z,2.30
2022-09-13T18:42:41.011Z,2.20
2022-09-13T18:44:42.875Z,2.00
2022-09-13T18:46:44.928Z,2.27
2022-09-13T18:48:51.645Z,1.67
2022-09-13T18:50:53.450Z,1.80
2022-09-13T18:52:55.161Z,1.90
2022-09-13T18:54:56.887Z,1.90
2022-09-13T18:56:59.939Z,2.17
2022-09-13T18:59:04.378Z,2.30
2022-09-13T19:01:12.504Z,2.20
2022-09-13T19:03:14.445Z,1.80
2022-09-13T19:05:18.973Z,2.20
2022-09-13T19:07:20.791Z,2.23
2022-09-13T19:09:23.106Z,1.90
2022-09-13T19:13:49.719Z,1.90
2022-09-13T19:15:51.510Z,1.80
2022-09-13T19:17:53.384Z,1.67
2022-09-13T19:19:55.637Z,2.00
2022-09-13T19:21:57.433Z,1.80
2022-09-13T19:24:04.040Z,1.80
2022-09-13T19:26:12.629Z,2.00
2022-09-13T19:28:14.399Z,1.80
2022-09-13T19:30:16.426Z,2.00
2022-09-13T19:32:18.179Z,1.60
2022-09-13T19:34:22.287Z,2.10
2022-09-13T19:36:27.300Z,2.17
2022-09-13T19:38:31.831Z,1.97
2022-09-13T19:40:34.106Z,1.70
2022-09-13T19:42:36.146Z,1.80
2022-09-13T19:44:37.890Z,2.10
2022-09-13T19:46:41.165Z,1.90
2022-09-13T19:48:48.476Z,1.90
2022-09-13T19:50:50.411Z,1.60
2022-09-13T19:52:52.262Z,1.77
2022-09-13T19:54:56.294Z,1.70
2022-09-13T19:56:58.067Z,1.80
2022-09-13T19:59:00.942Z,1.80
2022-09-13T20:01:15.274Z,1.80
2022-09-13T20:03:17.028Z,1.80
2022-09-13T20:05:18.800Z,1.90
2022-09-13T20:07:20.492Z,1.90
2022-09-13T20:09:22.454Z,1.80
2022-09-13T20:11:26.113Z,2.33
2022-09-13T20:13:27.930Z,1.87
2022-09-13T20:15:31.081Z,1.87
2022-09-13T20:17:32.960Z,2.10
2022-09-13T20:19:46.381Z,2.07
2022-09-13T20:21:51.311Z,2.40
2022-09-13T20:23:59.430Z,2.50
2022-09-13T20:26:15.142Z,1.67
2022-09-13T20:28:17.247Z,2.30
2022-09-13T20:30:19.141Z,2.37
2022-09-13T20:32:20.888Z,2.10
2022-09-13T20:34:22.738Z,1.90
2022-09-13T20:36:27.193Z,2.10
2022-09-13T20:38:29.106Z,1.97
2022-09-13T20:40:32.191Z,2.20
2022-09-13T20:42:34.452Z,1.90
2022-09-13T20:44:36.247Z,2.10
2022-09-13T20:46:40.335Z,2.10
2022-09-13T20:48:44.407Z,1.77
2022-09-13T20:50:56.362Z,2.10
2022-09-13T20:52:58.357Z,2.00
2022-09-13T20:55:00.319Z,2.23
2022-09-13T20:57:02.089Z,1.93
2022-09-13T20:59:04.147Z,2.30
2022-09-13T21:01:09.800Z,2.00
2022-09-13T21:03:12.321Z,2.03
2022-09-13T21:05:14.214Z,1.80
2022-09-13T21:07:34.662Z,2.37
2022-09-13T21:09:36.461Z,2.30
2022-09-13T21:11:38.915Z,2.00
2022-09-13T21:13:43.752Z,2.10
2022-09-13T21:15:47.063Z,2.00
2022-09-13T21:17:48.985Z,2.00
2022-09-13T21:19:50.729Z,1.90
2022-09-13T21:21:52.779Z,2.00
2022-09-13T21:23:56.641Z,2.10
2022-09-13T21:26:07.062Z,1.90
2022-09-13T21:28:09.820Z,1.97
2022-09-13T21:30:14.467Z,1.70
2022-09-13T21:32:16.353Z,1.63
2022-09-13T21:34:19.342Z,2.00
2022-09-13T21:36:21.257Z,1.53
2022-09-13T21:38:25.160Z,1.70
2022-09-13T21:40:26.880Z,1.97
2022-09-13T21:42:28.626Z,1.83
2022-09-13T21:44:31.159Z,1.80
2022-09-13T21:46:35.257Z,2.00
2022-09-13T21:48:36.947Z,2.07
2022-09-13T21:50:38.851Z,1.50
2022-09-13T21:52:41.974Z,1.50
2022-09-13T21:54:44.176Z,2.17
2022-09-13T21:56:51.779Z,1.50
2022-09-13T21:58:58.248Z,1.50
2022-09-13T22:01:09.875Z,1.60
2022-09-13T22:03:11.675Z,1.60
2022-09-13T22:05:13.488Z,1.30
2022-09-13T22:07:15.165Z,1.60
2022-09-13T22:09:16.894Z,1.50
2022-09-13T22:11:25.352Z,1.63
2022-09-13T22:13:27.561Z,1.47
2022-09-13T22:15:29.287Z,1.70
2022-09-13T22:17:30.983Z,1.40
2022-09-13T22:19:32.775Z,1.60
2022-09-13T22:21:36.528Z,1.60
2022-09-13T22:23:39.071Z,1.53
2022-09-13T22:25:42.274Z,1.70
2022-09-13T22:27:43.925Z,1.70
2022-09-13T22:29:47.169Z,2.00
2022-09-13T22:31:50.702Z,1.50
2022-09-13T22:33:53.737Z,1.80
2022-09-13T22:36:01.834Z,1.93
2022-09-13T22:38:03.546Z,1.60
2022-09-13T22:40:05.715Z,1.83
2022-09-13T22:42:07.733Z,1.57
2022-09-13T22:44:10.642Z,1.50
2022-09-13T22:46:18.897Z,1.70
2022-09-13T22:48:22.604Z,1.67
2022-09-13T22:50:24.585Z,1.60
2022-09-13T22:52:26.315Z,1.60
2022-09-13T22:54:28.513Z,1.70
2022-09-13T22:56:32.922Z,1.60
2022-09-13T22:58:34.975Z,1.97
2022-09-13T23:00:36.655Z,1.80
2022-09-13T23:02:44.033Z,1.83
2022-09-13T23:04:48.259Z,1.90
2022-09-13T23:06:50.019Z,1.60
2022-09-13T23:08:53.936Z,1.87
2022-09-13T23:10:56.845Z,2.23
2022-09-13T23:12:58.561Z,1.60
2022-09-13T23:15:00.270Z,1.77
2022-09-13T23:17:02.065Z,1.63
2022-09-13T23:19:03.847Z,1.63
2022-09-13T23:21:05.816Z,2.00
2022-09-13T23:23:07.956Z,1.50
2022-09-13T23:25:09.764Z,1.63
2022-09-13T23:27:11.449Z,1.80
2022-09-13T23:29:16.081Z,1.47
2022-09-13T23:31:20.577Z,1.53
2022-09-13T23:33:22.408Z,1.53
2022-09-13T23:35:24.381Z,1.30
2022-09-13T23:37:26.092Z,1.53
2022-09-13T23:39:27.904Z,1.30
2022-09-13T23:41:31.094Z,1.70
2022-09-13T23:43:33.453Z,1.80
2022-09-13T23:45:35.399Z,1.83
2022-09-13T23:47:37.449Z,1.77
2022-09-13T23:49:39.249Z,2.13
2022-09-13T23:51:41.574Z,2.00
2022-09-13T23:53:43.961Z,1.80
2022-09-13T23:55:46.646Z,1.90
2022-09-13T23:57:48.332Z,1.70
2022-09-13T23:59:50.093Z,1.73
